sensor_id;sensor_type;location;lat;lon;timestamp;pressure;altitude;pressure_sealevel;temperature
18474;BMP180;30265;52.408;13.500;2022-07-29T00:02:08;101724.00;;;16.50
18474;BMP180;30265;52.408;13.500;2022-07-29T00:12:36;101717.00;;;16.30
18474;BMP180;30265;52.408;13.500;2022-07-29T00:23:02;101688.00;;;16.30
18474;BMP180;30265;52.408;13.500;2022-07-29T00:33:25;101714.00;;;16.10
18474;BMP180;30265;52.408;13.500;2022-07-29T00:43:48;101693.00;;;16.00
18474;BMP180;30265;52.408;13.500;2022-07-29T00:54:13;101694.00;;;15.80
18474;BMP180;30265;52.408;13.500;2022-07-29T01:04:35;101678.00;;;15.70
18474;BMP180;30265;52.408;13.500;2022-07-29T01:14:58;101683.00;;;15.50
18474;BMP180;30265;52.408;13.500;2022-07-29T01:25:44;101669.00;;;15.40
18474;BMP180;30265;52.408;13.500;2022-07-29T01:36:20;101641.00;;;15.20
18474;BMP180;30265;52.408;13.500;2022-07-29T01:46:52;101601.00;;;15.20
18474;BMP180;30265;52.408;13.500;2022-07-29T01:57:21;101602.00;;;15.10
18474;BMP180;30265;52.408;13.500;2022-07-29T02:07:47;101579.00;;;15.00
18474;BMP180;30265;52.408;13.500;2022-07-29T02:18:14;101594.00;;;14.90
18474;BMP180;30265;52.408;13.500;2022-07-29T02:28:36;101605.00;;;14.80
18474;BMP180;30265;52.408;13.500;2022-07-29T02:39:03;101615.00;;;14.90
18474;BMP180;30265;52.408;13.500;2022-07-29T02:49:35;101601.00;;;14.80
18474;BMP180;30265;52.408;13.500;2022-07-29T03:00:03;101609.00;;;14.80
18474;BMP180;30265;52.408;13.500;2022-07-29T03:10:26;101603.00;;;14.80
18474;BMP180;30265;52.408;13.500;2022-07-29T03:20:49;101597.00;;;14.80
18474;BMP180;30265;52.408;13.500;2022-07-29T03:31:11;101585.00;;;14.90
18474;BMP180;30265;52.408;13.500;2022-07-29T03:41:35;101584.00;;;15.00
18474;BMP180;30265;52.408;13.500;2022-07-29T03:51:58;101580.00;;;15.00
18474;BMP180;30265;52.408;13.500;2022-07-29T04:02:23;101584.00;;;15.10
18474;BMP180;30265;52.408;13.500;2022-07-29T04:12:49;101570.00;;;15.20
18474;BMP180;30265;52.408;13.500;2022-07-29T04:23:13;101587.00;;;15.40
18474;BMP180;30265;52.408;13.500;2022-07-29T04:33:34;101573.00;;;15.60
18474;BMP180;30265;52.408;13.500;2022-07-29T04:43:58;101585.00;;;15.90
18474;BMP180;30265;52.408;13.500;2022-07-29T04:54:22;101579.00;;;16.10
18474;BMP180;30265;52.408;13.500;2022-07-29T05:04:48;101590.00;;;16.20
18474;BMP180;30265;52.408;13.500;2022-07-29T05:15:10;101586.00;;;16.40
18474;BMP180;30265;52.408;13.500;2022-07-29T05:25:33;101585.00;;;16.70
18474;BMP180;30265;52.408;13.500;2022-07-29T05:36:04;101572.00;;;16.80
18474;BMP180;30265;52.408;13.500;2022-07-29T05:46:29;101578.00;;;16.90
18474;BMP180;30265;52.408;13.500;2022-07-29T05:56:51;101579.00;;;17.10
18474;BMP180;30265;52.408;13.500;2022-07-29T06:07:14;101585.00;;;18.30
18474;BMP180;30265;52.408;13.500;2022-07-29T06:17:36;101573.00;;;18.80
18474;BMP180;30265;52.408;13.500;2022-07-29T06:28:23;101572.00;;;19.20
18474;BMP180;30265;52.408;13.500;2022-07-29T06:38:47;101567.00;;;19.90
18474;BMP180;30265;52.408;13.500;2022-07-29T06:49:13;101560.00;;;19.80
18474;BMP180;30265;52.408;13.500;2022-07-29T06:59:34;101572.00;;;19.80
18474;BMP180;30265;52.408;13.500;2022-07-29T07:09:58;101586.00;;;20.20
18474;BMP180;30265;52.408;13.500;2022-07-29T07:20:22;101593.00;;;20.60
18474;BMP180;30265;52.408;13.500;2022-07-29T07:30:49;101582.00;;;21.30
18474;BMP180;30265;52.408;13.500;2022-07-29T07:41:12;101590.00;;;20.50
18474;BMP180;30265;52.408;13.500;2022-07-29T07:51:37;101577.00;;;22.00
18474;BMP180;30265;52.408;13.500;2022-07-29T08:01:59;101550.00;;;24.00
18474;BMP180;30265;52.408;13.500;2022-07-29T08:12:23;101573.00;;;23.60
18474;BMP180;30265;52.408;13.500;2022-07-29T08:22:45;101575.00;;;23.70
18474;BMP180;30265;52.408;13.500;2022-07-29T08:33:08;101562.00;;;23.70
18474;BMP180;30265;52.408;13.500;2022-07-29T08:43:29;101558.00;;;23.90
18474;BMP180;30265;52.408;13.500;2022-07-29T08:53:54;101543.00;;;24.60
18474;BMP180;30265;52.408;13.500;2022-07-29T09:04:17;101554.00;;;24.50
18474;BMP180;30265;52.408;13.500;2022-07-29T09:14:40;101537.00;;;24.80
18474;BMP180;30265;52.408;13.500;2022-07-29T09:25:03;101544.00;;;25.70
18474;BMP180;30265;52.408;13.500;2022-07-29T09:35:27;101525.00;;;26.60
18474;BMP180;30265;52.408;13.500;2022-07-29T09:45:48;101531.00;;;26.10
18474;BMP180;30265;52.408;13.500;2022-07-29T09:56:13;101506.00;;;26.80
18474;BMP180;30265;52.408;13.500;2022-07-29T10:06:55;101505.00;;;27.30
18474;BMP180;30265;52.408;13.500;2022-07-29T10:17:27;101524.00;;;26.70
18474;BMP180;30265;52.408;13.500;2022-07-29T10:27:55;101526.00;;;26.80
18474;BMP180;30265;52.408;13.500;2022-07-29T10:38:45;101506.00;;;26.40
18474;BMP180;30265;52.408;13.500;2022-07-29T10:49:10;101502.00;;;26.80
18474;BMP180;30265;52.408;13.500;2022-07-29T10:59:36;101493.00;;;27.80
18474;BMP180;30265;52.408;13.500;2022-07-29T11:10:19;101489.00;;;28.40
18474;BMP180;30265;52.408;13.500;2022-07-29T11:20:51;101486.00;;;28.20
18474;BMP180;30265;52.408;13.500;2022-07-29T11:31:16;101469.00;;;28.40
18474;BMP180;30265;52.408;13.500;2022-07-29T11:41:43;101475.00;;;29.50
18474;BMP180;30265;52.408;13.500;2022-07-29T11:52:06;101483.00;;;28.20
18474;BMP180;30265;52.408;13.500;2022-07-29T12:02:39;101468.00;;;29.30
18474;BMP180;30265;52.408;13.500;2022-07-29T12:13:10;101452.00;;;29.80
18474;BMP180;30265;52.408;13.500;2022-07-29T12:23:33;101472.00;;;29.40
18474;BMP180;30265;52.408;13.500;2022-07-29T12:34:19;101449.00;;;28.80
18474;BMP180;30265;52.408;13.500;2022-07-29T12:44:47;101429.00;;;29.80
18474;BMP180;30265;52.408;13.500;2022-07-29T12:55:41;101442.00;;;29.70
18474;BMP180;30265;52.408;13.500;2022-07-29T13:17:11;101421.00;;;29.90
18474;BMP180;30265;52.408;13.500;2022-07-29T13:27:34;101402.00;;;29.70
18474;BMP180;30265;52.408;13.500;2022-07-29T13:37:58;101385.00;;;29.80
18474;BMP180;30265;52.408;13.500;2022-07-29T13:48:20;101400.00;;;29.20
18474;BMP180;30265;52.408;13.500;2022-07-29T13:58:46;101402.00;;;28.30
18474;BMP180;30265;52.408;13.500;2022-07-29T14:09:08;101392.00;;;29.20
18474;BMP180;30265;52.408;13.500;2022-07-29T14:19:31;101366.00;;;30.20
18474;BMP180;30265;52.408;13.500;2022-07-29T14:29:55;101382.00;;;28.70
18474;BMP180;30265;52.408;13.500;2022-07-29T14:40:19;101361.00;;;30.00
18474;BMP180;30265;52.408;13.500;2022-07-29T14:50:41;101361.00;;;30.90
18474;BMP180;30265;52.408;13.500;2022-07-29T15:01:04;101359.00;;;30.60
18474;BMP180;30265;52.408;13.500;2022-07-29T15:11:29;101345.00;;;29.70
18474;BMP180;30265;52.408;13.500;2022-07-29T15:21:58;101349.00;;;30.80
18474;BMP180;30265;52.408;13.500;2022-07-29T15:32:23;101338.00;;;30.90
18474;BMP180;30265;52.408;13.500;2022-07-29T15:42:48;101345.00;;;30.10
18474;BMP180;30265;52.408;13.500;2022-07-29T15:53:10;101335.00;;;29.30
18474;BMP180;30265;52.408;13.500;2022-07-29T16:03:33;101322.00;;;29.70
18474;BMP180;30265;52.408;13.500;2022-07-29T16:13:54;101321.00;;;29.60
18474;BMP180;30265;52.408;13.500;2022-07-29T16:24:17;101307.00;;;29.00
18474;BMP180;30265;52.408;13.500;2022-07-29T16:34:39;101303.00;;;29.20
18474;BMP180;30265;52.408;13.500;2022-07-29T16:45:03;101291.00;;;29.80
18474;BMP180;30265;52.408;13.500;2022-07-29T16:55:26;101295.00;;;29.20
18474;BMP180;30265;52.408;13.500;2022-07-29T17:05:49;101298.00;;;28.10
18474;BMP180;30265;52.408;13.500;2022-07-29T17:16:13;101303.00;;;28.00
18474;BMP180;30265;52.408;13.500;2022-07-29T17:26:39;101308.00;;;27.80
18474;BMP180;30265;52.408;13.500;2022-07-29T17:37:04;101303.00;;;28.00
18474;BMP180;30265;52.408;13.500;2022-07-29T17:47:26;101312.00;;;27.80
18474;BMP180;30265;52.408;13.500;2022-07-29T17:57:51;101308.00;;;27.60
18474;BMP180;30265;52.408;13.500;2022-07-29T18:08:23;101311.00;;;27.20
18474;BMP180;30265;52.408;13.500;2022-07-29T18:18:50;101308.00;;;26.70
18474;BMP180;30265;52.408;13.500;2022-07-29T18:29:13;101330.00;;;26.30
18474;BMP180;30265;52.408;13.500;2022-07-29T18:39:35;101344.00;;;25.80
18474;BMP180;30265;52.408;13.500;2022-07-29T18:49:58;101344.00;;;25.40
18474;BMP180;30265;52.408;13.500;2022-07-29T19:00:21;101356.00;;;25.10
18474;BMP180;30265;52.408;13.500;2022-07-29T19:10:44;101358.00;;;24.70
18474;BMP180;30265;52.408;13.500;2022-07-29T19:21:06;101372.00;;;24.50
18474;BMP180;30265;52.408;13.500;2022-07-29T19:31:29;101372.00;;;24.30
18474;BMP180;30265;52.408;13.500;2022-07-29T19:41:52;101382.00;;;24.00
18474;BMP180;30265;52.408;13.500;2022-07-29T19:52:22;101378.00;;;23.90
18474;BMP180;30265;52.408;13.500;2022-07-29T20:02:44;101381.00;;;23.60
18474;BMP180;30265;52.408;13.500;2022-07-29T20:13:08;101390.00;;;23.40
18474;BMP180;30265;52.408;13.500;2022-07-29T20:23:29;101381.00;;;23.30
18474;BMP180;30265;52.408;13.500;2022-07-29T20:33:54;101391.00;;;23.10
18474;BMP180;30265;52.408;13.500;2022-07-29T20:44:15;101391.00;;;23.00
18474;BMP180;30265;52.408;13.500;2022-07-29T20:54:40;101403.00;;;22.80
18474;BMP180;30265;52.408;13.500;2022-07-29T21:05:08;101403.00;;;22.70
18474;BMP180;30265;52.408;13.500;2022-07-29T21:15:33;101405.00;;;22.50
18474;BMP180;30265;52.408;13.500;2022-07-29T21:25:55;101391.00;;;22.40
18474;BMP180;30265;52.408;13.500;2022-07-29T21:36:26;101399.00;;;22.10
18474;BMP180;30265;52.408;13.500;2022-07-29T21:47:09;101403.00;;;22.00
18474;BMP180;30265;52.408;13.500;2022-07-29T21:57:43;101403.00;;;21.80
18474;BMP180;30265;52.408;13.500;2022-07-29T22:08:11;101406.00;;;21.60
18474;BMP180;30265;52.408;13.500;2022-07-29T22:18:37;101399.00;;;21.60
18474;BMP180;30265;52.408;13.500;2022-07-29T22:28:59;101390.00;;;21.50
18474;BMP180;30265;52.408;13.500;2022-07-29T22:39:23;101394.00;;;21.40
18474;BMP180;30265;52.408;13.500;2022-07-29T22:49:46;101385.00;;;21.20
18474;BMP180;30265;52.408;13.500;2022-07-29T23:00:12;101367.00;;;21.10
18474;BMP180;30265;52.408;13.500;2022-07-29T23:10:34;101365.00;;;21.00
18474;BMP180;30265;52.408;13.500;2022-07-29T23:20:57;101365.00;;;20.70
18474;BMP180;30265;52.408;13.500;2022-07-29T23:31:22;101362.00;;;20.60
18474;BMP180;30265;52.408;13.500;2022-07-29T23:41:46;101349.00;;;20.40
18474;BMP180;30265;52.408;13.500;2022-07-29T23:52:08;101346.00;;;20.30
